Time;durP1;ratioP1;P1;durP2;ratioP2;P2;SDS_P1;SDS_P2;PMS_P1;PMS_P2;Temp;Humidity;BMP_temperature;BMP_pressure;BME280_temperature;BME280_humidity;BME280_pressure;Samples;Min_cycle;Max_cycle;Signal;HPM_P1;HPM_P2
2021/06/27 00:01:50;;;;;;;14.15;5.55;;;13.90;99.90;;;;;;5031767;28;20292;-75
2021/06/27 00:04:17;;;;;;;10.65;5.18;;;13.90;99.90;;;;;;5052219;28;20690;-75
2021/06/27 00:06:44;;;;;;;48.03;8.57;;;13.90;99.90;;;;;;5048567;28;20193;-75
2021/06/27 00:09:10;;;;;;;17.75;5.78;;;13.80;99.90;;;;;;5048961;28;20869;-75
2021/06/27 00:11:36;;;;;;;11.15;6.10;;;13.80;99.90;;;;;;5031223;28;20194;-75
2021/06/27 00:14:02;;;;;;;11.70;5.50;;;13.80;99.90;;;;;;5046440;28;20606;-74
2021/06/27 00:16:29;;;;;;;18.08;5.68;;;13.70;99.90;;;;;;5047118;28;20193;-75
2021/06/27 00:18:56;;;;;;;15.13;6.70;;;13.70;99.90;;;;;;5031518;28;20202;-73
2021/06/27 00:21:22;;;;;;;8.57;5.65;;;13.60;99.90;;;;;;5049752;28;20933;-74
2021/06/27 00:23:50;;;;;;;43.85;8.80;;;13.70;99.90;;;;;;5036561;28;20243;-73
2021/06/27 00:26:17;;;;;;;15.25;5.93;;;13.60;99.90;;;;;;5042434;28;20310;-75
2021/06/27 00:28:43;;;;;;;9.20;5.65;;;13.60;99.90;;;;;;5050672;28;20292;-75
2021/06/27 00:31:10;;;;;;;15.75;5.82;;;13.60;99.90;;;;;;5033891;28;20204;-75
2021/06/27 00:33:36;;;;;;;9.07;5.60;;;13.60;99.90;;;;;;5029203;28;20667;-75
2021/06/27 00:36:04;;;;;;;19.88;6.28;;;13.60;99.90;;;;;;5047237;28;20208;-74
2021/06/27 00:38:29;;;;;;;10.90;6.18;;;13.50;99.90;;;;;;5053400;28;20208;-74
2021/06/27 00:40:55;;;;;;;9.60;5.72;;;13.50;99.90;;;;;;5047194;28;20246;-75
2021/06/27 00:43:21;;;;;;;11.18;6.82;;;13.50;99.90;;;;;;5046597;28;20205;-74
2021/06/27 00:45:47;;;;;;;12.80;6.18;;;13.50;99.90;;;;;;5035205;28;20208;-75
2021/06/27 00:48:13;;;;;;;13.60;6.72;;;13.50;99.90;;;;;;5045372;28;20194;-76
2021/06/27 00:50:44;;;;;;;9.02;5.93;;;13.40;99.90;;;;;;5048130;28;20283;-75
2021/06/27 00:53:10;;;;;;;13.05;5.40;;;13.40;99.90;;;;;;5029822;28;20185;-75
2021/06/27 00:55:37;;;;;;;9.60;5.90;;;13.40;99.90;;;;;;5052409;28;20189;-74
2021/06/27 00:58:04;;;;;;;160.45;11.88;;;13.40;99.90;;;;;;5048660;28;20194;-76
2021/06/27 01:00:38;;;;;;;19.70;6.25;;;13.30;99.90;;;;;;5047676;28;20193;-73
2021/06/27 01:03:05;;;;;;;9.55;5.38;;;13.30;99.90;;;;;;5031202;22;20225;-76
2021/06/27 01:05:36;;;;;;;13.57;5.95;;;13.20;99.90;;;;;;5027921;28;20193;-75
2021/06/27 01:08:03;;;;;;;12.27;5.80;;;13.30;99.90;;;;;;5032515;28;20296;-74
2021/06/27 01:10:29;;;;;;;69.75;8.95;;;13.30;99.90;;;;;;5034292;28;20205;-74
2021/06/27 01:12:56;;;;;;;55.40;7.97;;;13.30;99.90;;;;;;5008451;28;20190;-75
2021/06/27 01:15:22;;;;;;;15.75;5.88;;;13.20;99.90;;;;;;5028605;28;20195;-74
2021/06/27 01:17:51;;;;;;;10.18;5.72;;;13.20;99.90;;;;;;5038000;28;20185;-75
2021/06/27 01:20:21;;;;;;;11.30;5.70;;;13.20;99.90;;;;;;5030795;28;20608;-74
2021/06/27 01:22:47;;;;;;;11.13;6.57;;;13.20;99.90;;;;;;5025888;28;20292;-74
2021/06/27 01:25:16;;;;;;;8.77;5.80;;;13.30;99.90;;;;;;5034983;28;20197;-74
2021/06/27 01:27:41;;;;;;;18.52;6.10;;;13.30;99.90;;;;;;5014768;28;20197;-74
2021/06/27 01:30:11;;;;;;;17.40;5.57;;;13.20;99.90;;;;;;5023889;28;20250;-74
2021/06/27 01:32:45;;;;;;;10.95;6.32;;;13.30;99.90;;;;;;5012346;28;20212;-75
2021/06/27 01:35:14;;;;;;;12.50;6.70;;;13.30;99.90;;;;;;5017593;28;20194;-74
2021/06/27 01:37:41;;;;;;;12.20;6.07;;;13.20;99.90;;;;;;5033380;28;20221;-75
2021/06/27 01:40:08;;;;;;;15.63;7.60;;;13.20;99.90;;;;;;5031545;28;20194;-74
2021/06/27 01:42:34;;;;;;;10.88;5.80;;;13.20;99.90;;;;;;5020230;28;20256;-74
2021/06/27 01:45:09;;;;;;;13.43;6.13;;;13.20;99.90;;;;;;5034082;28;20289;-75
2021/06/27 01:47:35;;;;;;;10.00;5.40;;;13.20;99.90;;;;;;5035618;28;20189;-74
2021/06/27 01:50:01;;;;;;;15.30;6.00;;;13.20;99.90;;;;;;5037540;28;20562;-74
2021/06/27 01:52:26;;;;;;;14.52;7.05;;;13.20;99.90;;;;;;5036027;28;20228;-74
2021/06/27 01:54:52;;;;;;;25.40;6.45;;;13.30;99.90;;;;;;5030102;28;20914;-74
2021/06/27 01:57:21;;;;;;;9.63;5.80;;;13.20;99.90;;;;;;5017725;28;20248;-75
2021/06/27 01:59:48;;;;;;;10.60;6.35;;;13.30;99.90;;;;;;5026222;28;20210;-74
2021/06/27 02:02:18;;;;;;;9.48;5.85;;;13.30;99.90;;;;;;5024283;28;20691;-75
2021/06/27 02:04:46;;;;;;;16.35;6.60;;;13.30;99.90;;;;;;5008519;28;20198;-77
2021/06/27 02:07:13;;;;;;;11.43;4.63;;;13.30;99.90;;;;;;5015924;28;20249;-74
2021/06/27 02:09:40;;;;;;;10.23;5.53;;;13.30;99.90;;;;;;5014034;28;20273;-75
2021/06/27 02:12:08;;;;;;;8.55;5.57;;;13.30;99.90;;;;;;5017112;28;20198;-75
2021/06/27 02:14:36;;;;;;;11.50;5.82;;;13.30;99.90;;;;;;4998773;28;20206;-75
2021/06/27 02:17:01;;;;;;;10.77;7.10;;;13.30;99.90;;;;;;5012004;28;20206;-74
2021/06/27 02:19:27;;;;;;;11.15;7.10;;;13.30;99.90;;;;;;5016326;28;20203;-75
2021/06/27 02:21:53;;;;;;;14.10;7.72;;;13.40;99.90;;;;;;5014160;28;20261;-75
2021/06/27 02:24:18;;;;;;;17.35;8.63;;;13.50;99.90;;;;;;5017350;28;20545;-75
2021/06/27 02:26:44;;;;;;;15.80;7.90;;;13.50;99.90;;;;;;4999571;28;20228;-75
2021/06/27 02:29:10;;;;;;;16.48;8.60;;;13.60;99.90;;;;;;5017607;28;20194;-76
2021/06/27 02:31:35;;;;;;;18.85;8.73;;;13.70;99.90;;;;;;5014774;28;20752;-75
2021/06/27 02:34:02;;;;;;;19.48;8.88;;;13.70;99.90;;;;;;5018780;28;20707;-75
2021/06/27 02:36:28;;;;;;;18.05;8.23;;;13.80;99.90;;;;;;5012832;28;20202;-75
2021/06/27 02:38:54;;;;;;;18.27;8.80;;;13.80;99.90;;;;;;5023709;28;20672;-77
2021/06/27 02:41:20;;;;;;;16.25;8.07;;;13.80;99.90;;;;;;5000216;28;20229;-74
2021/06/27 02:43:46;;;;;;;19.10;8.52;;;13.90;99.90;;;;;;5001669;28;20540;-75
2021/06/27 02:46:12;;;;;;;15.55;8.18;;;13.90;99.90;;;;;;5015804;28;20242;-74
2021/06/27 02:48:38;;;;;;;17.80;8.43;;;13.90;99.90;;;;;;5002590;28;20198;-75
2021/06/27 02:51:05;;;;;;;15.85;9.48;;;13.90;99.90;;;;;;5017432;28;20499;-75
2021/06/27 02:53:30;;;;;;;14.18;8.07;;;14.00;99.90;;;;;;5019926;28;20333;-75
2021/06/27 02:56:09;;;;;;;19.77;8.77;;;14.00;99.90;;;;;;5001026;28;20629;-75
2021/06/27 02:58:44;;;;;;;15.30;8.13;;;14.00;99.90;;;;;;5024369;28;20194;-76
2021/06/27 03:01:10;;;;;;;20.90;8.60;;;14.00;99.90;;;;;;5013700;28;20194;-75
2021/06/27 03:03:38;;;;;;;17.65;8.38;;;14.10;99.90;;;;;;5002051;28;20313;-75
2021/06/27 03:06:04;;;;;;;16.02;8.73;;;14.10;99.90;;;;;;5020626;28;20190;-75
2021/06/27 03:08:31;;;;;;;18.85;8.68;;;14.20;99.90;;;;;;4998493;28;20206;-74
2021/06/27 03:10:58;;;;;;;19.38;9.77;;;14.20;99.90;;;;;;5017601;28;20213;-74
2021/06/27 03:13:24;;;;;;;14.30;8.40;;;14.30;99.90;;;;;;5017174;28;20199;-74
2021/06/27 03:15:49;;;;;;;17.50;9.00;;;14.40;99.90;;;;;;5021005;28;20246;-75
2021/06/27 03:18:15;;;;;;;16.80;8.88;;;14.50;99.90;;;;;;5016537;28;20203;-75
2021/06/27 03:20:41;;;;;;;17.02;9.95;;;14.50;99.90;;;;;;5014077;28;20699;-76
2021/06/27 03:23:08;;;;;;;19.08;9.48;;;14.60;99.90;;;;;;5022224;28;20673;-75
2021/06/27 03:25:35;;;;;;;18.35;8.82;;;14.60;99.90;;;;;;5019479;28;20198;-77
2021/06/27 03:28:01;;;;;;;17.48;9.85;;;14.70;99.90;;;;;;5013231;28;20199;-75
2021/06/27 03:30:27;;;;;;;18.75;9.13;;;14.70;99.90;;;;;;4998096;28;20206;-75
2021/06/27 03:32:52;;;;;;;20.38;8.98;;;14.80;99.90;;;;;;5000633;28;20190;-75
2021/06/27 03:35:18;;;;;;;21.58;9.57;;;14.80;99.90;;;;;;5015230;28;20227;-75
2021/06/27 03:40:36;;;;;;;20.27;9.85;;;14.80;99.90;;;;;;4982365;28;20271;-75
2021/06/27 03:43:02;;;;;;;17.38;9.55;;;14.80;99.90;;;;;;5018355;28;20194;-76
2021/06/27 03:45:29;;;;;;;17.55;9.68;;;14.80;99.90;;;;;;5015510;28;20199;-76
2021/06/27 03:47:55;;;;;;;18.85;9.68;;;14.80;99.90;;;;;;5015179;28;20194;-75
2021/06/27 03:50:21;;;;;;;13.05;6.40;;;14.80;99.90;;;;;;5021230;28;20198;-75
2021/06/27 03:52:48;;;;;;;17.70;8.65;;;14.90;99.90;;;;;;5015438;28;20222;-75
2021/06/27 03:55:14;;;;;;;15.10;7.35;;;14.80;99.90;;;;;;5020705;28;20225;-75
2021/06/27 03:57:40;;;;;;;13.95;7.82;;;14.80;99.90;;;;;;5020963;28;20218;-75
2021/06/27 04:00:07;;;;;;;18.77;8.98;;;14.80;99.90;;;;;;5016517;28;20200;-75
2021/06/27 04:02:33;;;;;;;13.77;7.60;;;14.80;99.90;;;;;;4994286;28;20689;-74
2021/06/27 04:05:04;;;;;;;17.17;8.52;;;14.80;99.90;;;;;;5000192;28;20187;-74
2021/06/27 04:07:29;;;;;;;17.15;7.55;;;14.80;99.90;;;;;;4992949;28;20192;-74
2021/06/27 04:09:55;;;;;;;15.98;7.88;;;14.80;99.90;;;;;;4995402;28;20535;-75
2021/06/27 04:12:21;;;;;;;15.77;8.27;;;14.90;99.90;;;;;;4999203;28;20209;-74
2021/06/27 04:14:47;;;;;;;14.80;7.50;;;14.90;99.90;;;;;;5011829;28;20255;-75
2021/06/27 04:17:17;;;;;;;11.88;6.72;;;14.90;99.90;;;;;;4997077;28;20203;-74
2021/06/27 04:19:43;;;;;;;13.20;7.13;;;14.90;99.90;;;;;;4998858;28;20210;-75
2021/06/27 04:22:08;;;;;;;12.43;7.38;;;14.90;99.90;;;;;;4999616;28;20602;-74
2021/06/27 04:24:34;;;;;;;14.43;7.75;;;14.80;99.90;;;;;;4997156;28;20192;-75
2021/06/27 04:27:00;;;;;;;16.92;6.90;;;14.80;99.90;;;;;;4994678;28;20209;-74
2021/06/27 04:29:25;;;;;;;11.35;6.97;;;14.80;99.90;;;;;;4993620;28;20708;-75
2021/06/27 04:31:51;;;;;;;12.43;6.60;;;14.80;99.90;;;;;;4999105;28;20555;-74
2021/06/27 04:34:20;;;;;;;14.30;7.32;;;14.90;99.90;;;;;;5001054;28;20199;-74
2021/06/27 04:36:46;;;;;;;14.43;7.55;;;14.90;99.90;;;;;;4999132;28;20222;-76
2021/06/27 04:39:14;;;;;;;15.40;8.27;;;14.90;99.90;;;;;;5011919;28;20696;-75
2021/06/27 04:41:41;;;;;;;13.80;7.53;;;15.00;99.90;;;;;;4998896;28;20199;-76
2021/06/27 04:44:07;;;;;;;16.77;7.25;;;15.00;99.90;;;;;;4997423;28;20717;-74
2021/06/27 04:46:33;;;;;;;11.43;6.88;;;15.00;99.90;;;;;;4998063;28;20289;-74
2021/06/27 04:48:59;;;;;;;13.35;6.47;;;15.00;99.90;;;;;;4996345;28;20195;-74
2021/06/27 04:51:25;;;;;;;11.15;5.70;;;15.00;99.90;;;;;;4999522;28;20202;-74
2021/06/27 04:53:51;;;;;;;21.13;6.45;;;14.90;99.90;;;;;;4999386;28;20226;-74
2021/06/27 04:56:16;;;;;;;9.68;5.75;;;14.90;99.90;;;;;;5015501;28;20207;-75
2021/06/27 04:58:42;;;;;;;10.82;6.20;;;14.90;99.90;;;;;;4993200;28;20278;-76
2021/06/27 05:01:08;;;;;;;11.43;6.10;;;14.80;99.90;;;;;;4999533;28;20199;-75
2021/06/27 05:03:34;;;;;;;10.10;5.47;;;14.70;99.90;;;;;;5009354;28;20222;-75
2021/06/27 05:05:59;;;;;;;10.05;5.35;;;14.80;99.90;;;;;;5018795;28;20202;-74
2021/06/27 05:08:25;;;;;;;9.20;5.55;;;14.80;99.90;;;;;;5008506;28;20202;-75
2021/06/27 05:10:51;;;;;;;9.30;5.10;;;14.80;99.90;;;;;;5018791;28;20198;-75
2021/06/27 05:13:17;;;;;;;7.57;4.50;;;14.80;99.90;;;;;;5014500;28;20343;-74
2021/06/27 05:15:42;;;;;;;9.77;5.32;;;14.90;99.90;;;;;;5017702;28;20190;-74
2021/06/27 05:18:08;;;;;;;7.28;4.50;;;15.00;99.90;;;;;;4996549;28;20203;-76
2021/06/27 05:20:34;;;;;;;7.03;3.90;;;15.00;99.90;;;;;;5001492;28;20194;-75
2021/06/27 05:23:00;;;;;;;10.35;4.45;;;15.10;99.90;;;;;;5014018;28;20210;-75
2021/06/27 05:25:26;;;;;;;7.10;4.38;;;15.10;99.90;;;;;;4996047;28;20558;-75
2021/06/27 05:27:51;;;;;;;9.35;4.00;;;15.10;99.90;;;;;;5018852;28;20644;-74
2021/06/27 05:30:17;;;;;;;9.05;3.60;;;15.10;99.90;;;;;;5021202;28;20614;-75
2021/06/27 05:32:43;;;;;;;6.65;3.97;;;15.20;99.90;;;;;;4995870;28;20225;-75
2021/06/27 05:35:09;;;;;;;6.40;4.10;;;15.30;99.90;;;;;;5001901;28;20553;-74
2021/06/27 05:37:34;;;;;;;9.20;4.43;;;15.30;99.90;;;;;;5024120;28;20205;-75
2021/06/27 05:40:02;;;;;;;7.30;4.35;;;15.40;99.90;;;;;;5014680;28;20753;-76
2021/06/27 05:42:28;;;;;;;9.38;4.22;;;15.50;99.90;;;;;;5008524;28;20758;-74
2021/06/27 05:44:53;;;;;;;8.05;4.13;;;15.50;99.90;;;;;;5019249;28;20198;-75
2021/06/27 05:47:19;;;;;;;8.18;3.92;;;15.50;99.90;;;;;;5013022;28;20194;-75
2021/06/27 05:49:45;;;;;;;9.20;4.30;;;15.50;99.90;;;;;;5000769;28;20575;-75
2021/06/27 05:52:10;;;;;;;6.85;3.50;;;15.50;99.90;;;;;;5001737;28;20198;-76
2021/06/27 05:54:36;;;;;;;6.50;4.03;;;15.50;99.90;;;;;;5018498;28;20202;-75
2021/06/27 05:57:02;;;;;;;7.57;4.03;;;15.50;99.90;;;;;;5014084;28;20198;-76
2021/06/27 05:59:28;;;;;;;8.95;3.97;;;15.60;99.90;;;;;;4998737;28;20590;-75
2021/06/27 06:01:53;;;;;;;8.15;3.55;;;15.70;99.90;;;;;;5019371;28;20346;-75
2021/06/27 06:04:19;;;;;;;8.63;4.18;;;15.70;99.90;;;;;;5012693;28;20592;-75
2021/06/27 06:06:45;;;;;;;8.32;3.80;;;15.60;99.90;;;;;;5017388;28;20194;-75
2021/06/27 06:09:10;;;;;;;9.48;3.92;;;15.50;99.90;;;;;;5013395;28;20201;-76
2021/06/27 06:11:36;;;;;;;7.18;3.65;;;15.50;99.90;;;;;;5011513;28;20191;-75
2021/06/27 06:14:02;;;;;;;6.68;3.80;;;15.60;99.90;;;;;;5001970;28;20672;-75
2021/06/27 06:16:27;;;;;;;7.57;3.83;;;15.60;99.90;;;;;;5002675;28;20580;-75
2021/06/27 06:18:53;;;;;;;7.68;3.90;;;15.50;99.90;;;;;;5023213;28;20198;-76
2021/06/27 06:21:19;;;;;;;5.10;3.38;;;15.60;99.90;;;;;;5019401;28;20199;-76
2021/06/27 06:23:45;;;;;;;4.88;3.38;;;15.70;99.90;;;;;;5019582;28;20722;-76
2021/06/27 06:26:11;;;;;;;8.32;3.60;;;15.70;99.90;;;;;;5021477;28;20285;-75
2021/06/27 06:28:40;;;;;;;6.65;3.70;;;15.70;99.90;;;;;;5006752;28;20280;-75
2021/06/27 06:31:07;;;;;;;7.18;3.60;;;15.80;99.90;;;;;;5020919;28;20194;-75
2021/06/27 06:33:33;;;;;;;6.80;3.90;;;15.90;99.90;;;;;;5022253;28;20251;-76
2021/06/27 06:35:59;;;;;;;4.38;2.80;;;15.90;99.90;;;;;;5021283;28;20214;-74
2021/06/27 06:38:24;;;;;;;4.45;2.80;;;15.90;99.90;;;;;;5028608;28;20206;-74
2021/06/27 06:40:50;;;;;;;4.60;2.83;;;15.90;99.90;;;;;;5024110;28;20202;-74
2021/06/27 06:43:16;;;;;;;4.63;3.35;;;15.80;99.90;;;;;;5022803;28;20297;-74
2021/06/27 06:45:41;;;;;;;10.25;4.07;;;15.80;99.90;;;;;;5020065;28;20198;-75
2021/06/27 06:48:07;;;;;;;4.20;3.20;;;15.80;99.90;;;;;;5002723;28;20586;-74
2021/06/27 06:50:33;;;;;;;7.60;3.40;;;15.80;99.90;;;;;;5006735;28;20683;-73
2021/06/27 06:52:59;;;;;;;8.75;4.32;;;15.80;99.90;;;;;;5003394;28;20209;-74
2021/06/27 06:55:27;;;;;;;12.82;4.10;;;15.80;99.90;;;;;;5017006;28;20685;-75
2021/06/27 06:57:53;;;;;;;9.23;4.30;;;15.80;99.90;;;;;;5001357;28;20217;-73
2021/06/27 07:00:19;;;;;;;6.97;3.88;;;15.80;99.90;;;;;;5021976;28;20206;-73
2021/06/27 07:02:44;;;;;;;7.55;3.50;;;15.70;99.90;;;;;;5016880;28;20707;-74
2021/06/27 07:05:11;;;;;;;7.40;3.97;;;15.80;99.90;;;;;;5014718;28;20229;-73
2021/06/27 07:07:36;;;;;;;7.63;4.45;;;15.80;99.90;;;;;;5020472;28;20198;-75
2021/06/27 07:10:06;;;;;;;13.77;4.63;;;15.90;99.90;;;;;;5013421;28;20711;-75
2021/06/27 07:12:32;;;;;;;6.85;3.95;;;16.00;99.90;;;;;;5017016;28;20616;-74
2021/06/27 07:14:58;;;;;;;6.38;3.90;;;16.10;99.90;;;;;;5017697;28;20281;-76
2021/06/27 07:17:24;;;;;;;6.82;4.20;;;16.10;99.90;;;;;;5020319;28;20190;-77
2021/06/27 07:19:50;;;;;;;8.40;4.43;;;16.10;99.90;;;;;;5000937;28;20199;-74
2021/06/27 07:22:16;;;;;;;9.27;4.28;;;16.10;99.90;;;;;;5019398;28;20580;-75
2021/06/27 07:24:41;;;;;;;9.75;4.75;;;16.10;99.90;;;;;;5000583;28;20233;-74
2021/06/27 07:27:08;;;;;;;13.13;5.00;;;16.10;99.90;;;;;;5022447;28;20198;-74
2021/06/27 07:29:34;;;;;;;7.88;4.38;;;16.20;99.90;;;;;;5017847;28;20210;-76
2021/06/27 07:32:00;;;;;;;7.25;4.35;;;16.20;99.90;;;;;;5004949;28;20201;-74
2021/06/27 07:34:27;;;;;;;9.02;4.43;;;16.40;99.90;;;;;;5002490;28;20325;-74
2021/06/27 07:36:53;;;;;;;7.90;3.97;;;16.50;99.90;;;;;;5024829;28;20190;-74
2021/06/27 07:39:18;;;;;;;12.23;4.55;;;16.40;99.90;;;;;;5018126;28;20524;-75
2021/06/27 07:41:44;;;;;;;11.77;5.20;;;16.50;99.90;;;;;;5020634;28;20209;-74
2021/06/27 07:44:10;;;;;;;8.73;4.60;;;16.50;99.90;;;;;;5014444;28;20209;-76
2021/06/27 07:46:35;;;;;;;7.80;3.95;;;16.50;99.90;;;;;;5019550;28;20265;-75
2021/06/27 07:49:01;;;;;;;10.80;4.18;;;16.40;99.90;;;;;;4995345;28;20660;-75
2021/06/27 07:51:27;;;;;;;7.72;3.92;;;16.50;99.90;;;;;;5006032;28;20198;-74
2021/06/27 07:53:52;;;;;;;11.07;4.05;;;16.50;99.90;;;;;;5001507;28;20205;-74
2021/06/27 07:56:18;;;;;;;12.00;4.60;;;16.50;99.90;;;;;;4999557;28;20309;-74
2021/06/27 07:58:44;;;;;;;7.72;3.78;;;16.50;99.90;;;;;;5019177;28;20202;-74
2021/06/27 08:01:09;;;;;;;11.43;3.97;;;16.60;99.90;;;;;;5012075;28;20209;-73
2021/06/27 08:03:35;;;;;;;5.65;3.83;;;16.60;99.90;;;;;;5016258;28;20229;-73
2021/06/27 08:06:01;;;;;;;8.00;4.10;;;16.50;99.90;;;;;;5019155;28;20201;-74
2021/06/27 08:08:26;;;;;;;5.97;3.67;;;16.60;99.90;;;;;;5013030;28;20209;-74
2021/06/27 08:10:52;;;;;;;6.82;3.97;;;16.60;99.90;;;;;;4998190;28;20194;-73
2021/06/27 08:13:18;;;;;;;8.15;4.38;;;16.70;99.90;;;;;;5016863;28;20195;-73
2021/06/27 08:15:47;;;;;;;9.02;4.07;;;16.70;99.90;;;;;;5000497;28;20204;-74
2021/06/27 08:18:14;;;;;;;6.80;3.60;;;16.60;99.90;;;;;;5013985;28;20222;-74
2021/06/27 08:20:42;;;;;;;9.38;4.10;;;16.70;99.90;;;;;;5020002;28;20201;-75
2021/06/27 08:23:08;;;;;;;6.35;3.70;;;16.70;99.90;;;;;;5011702;28;20210;-73
2021/06/27 08:25:33;;;;;;;8.02;3.92;;;16.80;99.90;;;;;;5019478;28;20233;-74
2021/06/27 08:28:01;;;;;;;9.45;3.92;;;16.80;99.90;;;;;;5014471;28;20202;-73
2021/06/27 08:30:26;;;;;;;8.95;3.90;;;16.80;99.90;;;;;;5016198;28;20218;-74
2021/06/27 08:32:52;;;;;;;10.32;4.20;;;16.80;99.90;;;;;;4996892;28;20623;-74
2021/06/27 08:35:20;;;;;;;6.50;3.92;;;16.80;99.90;;;;;;5019900;28;20228;-73
2021/06/27 08:37:47;;;;;;;6.15;3.65;;;16.90;99.90;;;;;;5016361;28;20237;-73
2021/06/27 08:40:14;;;;;;;6.22;3.92;;;17.00;99.90;;;;;;5003280;28;20194;-73
2021/06/27 08:42:41;;;;;;;6.47;3.85;;;16.90;99.90;;;;;;5017651;28;20233;-74
2021/06/27 08:45:08;;;;;;;6.50;3.35;;;16.90;99.90;;;;;;5013096;28;20195;-73
2021/06/27 08:47:35;;;;;;;9.43;4.35;;;16.90;99.90;;;;;;5012092;28;20257;-74
2021/06/27 08:50:02;;;;;;;10.35;3.85;;;16.90;99.90;;;;;;5006328;28;20512;-73
2021/06/27 08:52:31;;;;;;;6.47;3.75;;;17.10;99.90;;;;;;5011555;28;21320;-75
2021/06/27 08:54:56;;;;;;;6.25;4.22;;;17.20;99.90;;;;;;4995880;28;20265;-73
2021/06/27 08:57:22;;;;;;;7.18;3.20;;;17.30;99.90;;;;;;5009780;28;20732;-74
2021/06/27 08:59:48;;;;;;;5.60;3.42;;;17.30;99.90;;;;;;5008406;28;20195;-74
2021/06/27 09:02:14;;;;;;;4.57;2.78;;;17.40;99.90;;;;;;4999101;28;20774;-73
2021/06/27 09:04:42;;;;;;;4.57;2.60;;;17.50;99.90;;;;;;5011344;28;20723;-74
2021/06/27 09:07:31;;;;;;;6.18;3.03;;;17.70;99.90;;;;;;5010037;28;20190;-73
2021/06/27 09:10:03;;;;;;;6.28;3.10;;;18.00;99.90;;;;;;4991971;28;20286;-73
2021/06/27 09:12:49;;;;;;;5.88;3.00;;;18.20;99.90;;;;;;5012944;28;20298;-73
2021/06/27 09:15:49;;;;;;;8.35;2.92;;;18.40;99.90;;;;;;5005673;28;20207;-74
2021/06/27 09:18:14;;;;;;;7.53;2.97;;;18.40;99.90;;;;;;5007845;28;20202;-74
2021/06/27 09:20:54;;;;;;;6.15;3.03;;;18.40;99.90;;;;;;4995368;28;20190;-74
2021/06/27 09:23:36;;;;;;;9.52;3.60;;;18.40;99.90;;;;;;5006517;28;20209;-74
2021/06/27 09:26:02;;;;;;;3.85;2.75;;;18.40;99.90;;;;;;4994756;28;20198;-74
2021/06/27 09:29:03;;;;;;;3.60;2.80;;;18.50;99.90;;;;;;5019772;28;20672;-74
2021/06/27 09:31:43;;;;;;;9.50;3.30;;;18.30;99.90;;;;;;4935242;28;20216;-73
2021/06/27 09:34:13;;;;;;;5.32;3.58;;;18.20;99.90;;;;;;4932995;28;20327;-74
2021/06/27 09:36:51;;;;;;;7.38;3.67;;;18.00;99.90;;;;;;4942399;28;20569;-75
2021/06/27 09:39:18;;;;;;;9.07;3.95;;;18.00;99.90;;;;;;4948340;28;20587;-74
2021/06/27 09:41:53;;;;;;;4.55;2.90;;;18.00;99.90;;;;;;4948926;28;20495;-74
2021/06/27 09:44:21;;;;;;;8.00;3.33;;;18.10;99.90;;;;;;4928978;28;20293;-74
2021/06/27 09:46:52;;;;;;;5.50;3.13;;;18.10;99.90;;;;;;4932612;28;20196;-74
2021/06/27 09:49:31;;;;;;;5.82;3.33;;;18.10;99.90;;;;;;4942209;28;20223;-76
2021/06/27 09:51:59;;;;;;;6.28;3.45;;;18.20;99.90;;;;;;4945403;28;20765;-74
2021/06/27 09:54:26;;;;;;;4.78;3.15;;;18.40;99.90;;;;;;4943488;28;20225;-78
2021/06/27 09:56:52;;;;;;;6.03;3.80;;;18.60;99.90;;;;;;4941284;28;20624;-74
2021/06/27 09:59:20;;;;;;;11.23;3.80;;;18.70;99.90;;;;;;4943351;28;20326;-76
2021/06/27 10:01:47;;;;;;;7.28;4.03;;;18.60;99.90;;;;;;4934721;28;20220;-75
2021/06/27 10:04:25;;;;;;;12.50;4.22;;;18.70;99.90;;;;;;4946980;28;20276;-78
2021/06/27 10:06:59;;;;;;;9.02;4.07;;;18.60;99.90;;;;;;4974033;28;20207;-74
2021/06/27 10:09:33;;;;;;;8.40;3.58;;;18.50;99.90;;;;;;5013209;28;20282;-75
2021/06/27 10:12:11;;;;;;;5.35;3.67;;;18.50;99.90;;;;;;5001813;28;20214;-75
2021/06/27 10:14:48;;;;;;;4.38;2.80;;;18.50;99.90;;;;;;5010058;28;20606;-76
2021/06/27 10:17:15;;;;;;;13.25;3.38;;;18.60;99.90;;;;;;4994224;28;20195;-76
2021/06/27 10:19:41;;;;;;;9.30;3.75;;;18.70;99.90;;;;;;4990971;28;20678;-75
2021/06/27 10:22:07;;;;;;;5.95;3.03;;;18.80;99.90;;;;;;4994066;28;20205;-76
2021/06/27 10:24:33;;;;;;;4.68;2.47;;;18.80;99.90;;;;;;5003894;28;20202;-75
2021/06/27 10:26:59;;;;;;;3.85;2.60;;;18.90;99.90;;;;;;5006839;28;20195;-74
2021/06/27 10:29:25;;;;;;;7.18;2.80;;;18.90;99.90;;;;;;4991622;28;20274;-77
2021/06/27 10:31:53;;;;;;;7.43;4.25;;;18.90;99.90;;;;;;5004588;28;20204;-74
2021/06/27 10:34:20;;;;;;;7.38;3.97;;;19.00;99.90;;;;;;4987027;28;20255;-75
2021/06/27 10:37:04;;;;;;;8.88;4.50;;;19.10;99.90;;;;;;4990993;28;20206;-75
2021/06/27 10:39:29;;;;;;;7.85;4.20;;;19.20;99.90;;;;;;5005697;28;20979;-74
2021/06/27 10:42:03;;;;;;;11.48;4.35;;;19.30;99.90;;;;;;5006033;28;21029;-75
2021/06/27 10:44:42;;;;;;;9.30;3.97;;;19.20;99.90;;;;;;5008134;28;20341;-75
2021/06/27 10:47:08;;;;;;;10.85;4.45;;;19.20;99.90;;;;;;5012896;28;20222;-75
2021/06/27 10:49:34;;;;;;;9.38;3.80;;;19.20;99.90;;;;;;4990268;28;20256;-75
2021/06/27 10:52:06;;;;;;;8.23;4.35;;;19.10;99.90;;;;;;5009812;28;20549;-75
2021/06/27 10:54:37;;;;;;;9.90;4.40;;;19.00;99.90;;;;;;5004073;28;20215;-75
2021/06/27 10:57:05;;;;;;;8.30;3.70;;;18.90;99.90;;;;;;5003010;28;20195;-76
2021/06/27 10:59:40;;;;;;;8.23;3.63;;;18.90;99.90;;;;;;5006731;28;20307;-75
2021/06/27 11:02:17;;;;;;;6.28;3.33;;;19.00;99.90;;;;;;5013048;28;20205;-74
2021/06/27 11:04:47;;;;;;;8.15;4.65;;;19.00;99.90;;;;;;5016740;28;20194;-76
2021/06/27 11:07:31;;;;;;;6.05;3.90;;;19.10;99.90;;;;;;5009635;28;20700;-74
2021/06/27 11:10:19;;;;;;;9.52;3.55;;;19.20;99.90;;;;;;5003174;28;20198;-74
2021/06/27 11:13:00;;;;;;;7.97;4.10;;;19.20;99.90;;;;;;5008634;28;20202;-75
2021/06/27 11:15:32;;;;;;;8.20;4.00;;;19.00;99.90;;;;;;5012713;28;20205;-75
2021/06/27 11:18:09;;;;;;;7.75;3.72;;;18.80;99.90;;;;;;5004607;28;20700;-75
2021/06/27 11:20:44;;;;;;;9.38;4.47;;;18.70;99.90;;;;;;5015407;28;20260;-74
2021/06/27 11:23:10;;;;;;;6.57;3.85;;;18.70;99.90;;;;;;5011766;28;20201;-75
2021/06/27 11:25:38;;;;;;;10.20;4.00;;;18.60;99.90;;;;;;5021140;28;20207;-75
2021/06/27 11:28:20;;;;;;;8.88;4.05;;;18.50;99.90;;;;;;5011183;28;20285;-75
2021/06/27 11:30:46;;;;;;;7.25;4.35;;;18.40;99.90;;;;;;5005611;28;20186;-75
2021/06/27 11:33:23;;;;;;;8.25;4.45;;;18.40;99.90;;;;;;5006263;28;20194;-75
2021/06/27 11:35:52;;;;;;;10.48;4.32;;;18.50;99.90;;;;;;4998939;28;20280;-75
2021/06/27 11:38:39;;;;;;;7.35;4.40;;;18.50;99.90;;;;;;5017580;28;20211;-75
2021/06/27 11:41:27;;;;;;;8.10;4.90;;;18.60;99.90;;;;;;5017012;28;20194;-76
2021/06/27 11:44:02;;;;;;;11.85;5.95;;;18.50;99.90;;;;;;4983538;28;20341;-76
2021/06/27 11:46:38;;;;;;;6.38;4.45;;;18.50;99.90;;;;;;5005551;28;20957;-76
2021/06/27 11:49:08;;;;;;;8.60;5.00;;;18.40;99.90;;;;;;4995238;28;21093;-75
2021/06/27 11:51:34;;;;;;;15.60;6.20;;;18.50;99.90;;;;;;5005551;28;20205;-75
2021/06/27 11:54:00;;;;;;;15.43;6.35;;;18.50;99.90;;;;;;4995759;28;20195;-76
2021/06/27 11:56:26;;;;;;;9.02;5.68;;;18.60;99.90;;;;;;4993269;28;20210;-75
2021/06/27 11:59:14;;;;;;;8.60;5.40;;;18.70;99.90;;;;;;5010053;28;20209;-75
2021/06/27 12:01:40;;;;;;;10.77;5.22;;;18.80;99.90;;;;;;4982920;28;20305;-75
2021/06/27 12:04:06;;;;;;;8.85;5.10;;;18.80;99.90;;;;;;5004250;28;20322;-74
2021/06/27 12:06:35;;;;;;;13.98;7.40;;;18.80;99.90;;;;;;5008944;28;20221;-75
2021/06/27 12:09:03;;;;;;;10.77;6.93;;;18.60;99.90;;;;;;4993338;28;20248;-77
2021/06/27 12:11:29;;;;;;;12.20;6.10;;;18.70;99.90;;;;;;4997599;28;20302;-76
2021/06/27 12:13:56;;;;;;;11.40;6.47;;;18.60;99.90;;;;;;5009465;28;20205;-77
2021/06/27 12:16:31;;;;;;;11.65;6.95;;;18.70;99.90;;;;;;5005083;28;20556;-74
2021/06/27 12:18:59;;;;;;;14.60;5.97;;;18.90;99.90;;;;;;4990048;28;20206;-75
2021/06/27 12:21:27;;;;;;;10.70;6.25;;;18.90;99.90;;;;;;4988290;28;20616;-78
2021/06/27 12:23:56;;;;;;;11.90;6.57;;;18.80;99.90;;;;;;4996501;28;20201;-75
2021/06/27 12:26:22;;;;;;;12.45;7.22;;;18.80;99.90;;;;;;5011323;28;20213;-77
2021/06/27 12:28:50;;;;;;;15.13;7.40;;;18.90;99.90;;;;;;4990618;28;20267;-76
2021/06/27 12:31:24;;;;;;;11.18;7.25;;;19.10;99.90;;;;;;5002027;28;20252;-77
2021/06/27 12:33:55;;;;;;;12.23;7.38;;;19.20;99.90;;;;;;5005727;28;20209;-75
2021/06/27 12:36:40;;;;;;;15.68;7.50;;;19.20;99.90;;;;;;5000813;28;20190;-74
2021/06/27 12:39:27;;;;;;;13.68;7.63;;;19.30;99.90;;;;;;4985285;28;20800;-71
2021/06/27 12:42:09;;;;;;;11.45;7.07;;;19.40;99.90;;;;;;4994272;28;20265;-71
2021/06/27 12:44:36;;;;;;;12.77;7.40;;;19.20;99.90;;;;;;4991717;28;20621;-70
2021/06/27 12:47:02;;;;;;;11.15;7.00;;;19.60;99.90;;;;;;5005019;28;20195;-70
2021/06/27 12:49:31;;;;;;;11.88;6.65;;;19.60;99.90;;;;;;5000551;28;20207;-70